sensor_id;sensor_type;location;lat;lon;timestamp;pressure;altitude;pressure_sealevel;temperature;humidity
70815;BME280;58428;49.478;10.986;2023-06-14T00:02:19;97978.31;;;17.34;96.28
70815;BME280;58428;49.478;10.986;2023-06-14T00:04:44;97973.56;;;17.32;98.65
70815;BME280;58428;49.478;10.986;2023-06-14T00:07:10;97979.00;;;17.25;97.81
70815;BME280;58428;49.478;10.986;2023-06-14T00:09:38;97971.16;;;17.20;97.96
70815;BME280;58428;49.478;10.986;2023-06-14T00:12:04;97971.13;;;17.16;97.57
70815;BME280;58428;49.478;10.986;2023-06-14T00:14:31;97976.50;;;17.13;98.80
70815;BME280;58428;49.478;10.986;2023-06-14T00:16:57;97973.38;;;17.11;99.05
70815;BME280;58428;49.478;10.986;2023-06-14T00:19:24;97969.03;;;17.06;100.00
70815;BME280;58428;49.478;10.986;2023-06-14T00:21:50;97965.13;;;17.04;99.96
70815;BME280;58428;49.478;10.986;2023-06-14T00:24:17;97958.84;;;17.00;100.00
70815;BME280;58428;49.478;10.986;2023-06-14T00:26:42;97960.00;;;16.95;100.00
70815;BME280;58428;49.478;10.986;2023-06-14T00:29:08;97964.63;;;16.92;100.00
70815;BME280;58428;49.478;10.986;2023-06-14T00:31:34;97959.16;;;16.92;100.00
70815;BME280;58428;49.478;10.986;2023-06-14T00:33:59;97959.56;;;16.90;100.00
70815;BME280;58428;49.478;10.986;2023-06-14T00:36:25;97953.22;;;16.83;100.00
70815;BME280;58428;49.478;10.986;2023-06-14T00:38:50;97953.19;;;16.79;100.00
70815;BME280;58428;49.478;10.986;2023-06-14T00:41:16;97946.91;;;16.75;100.00
70815;BME280;58428;49.478;10.986;2023-06-14T00:43:41;97955.84;;;16.69;100.00
70815;BME280;58428;49.478;10.986;2023-06-14T00:46:07;97955.00;;;16.65;100.00
70815;BME280;58428;49.478;10.986;2023-06-14T00:48:32;97958.13;;;16.63;100.00
70815;BME280;58428;49.478;10.986;2023-06-14T00:51:00;97951.41;;;16.58;100.00
70815;BME280;58428;49.478;10.986;2023-06-14T00:53:29;97954.88;;;16.55;100.00
70815;BME280;58428;49.478;10.986;2023-06-14T00:56:00;97961.06;;;16.48;100.00
70815;BME280;58428;49.478;10.986;2023-06-14T00:58:26;97963.41;;;16.46;100.00
70815;BME280;58428;49.478;10.986;2023-06-14T01:00:53;97970.72;;;16.39;100.00
70815;BME280;58428;49.478;10.986;2023-06-14T01:03:19;97975.81;;;16.40;100.00
70815;BME280;58428;49.478;10.986;2023-06-14T01:05:47;97966.78;;;16.36;100.00
70815;BME280;58428;49.478;10.986;2023-06-14T01:08:33;97969.53;;;16.36;100.00
70815;BME280;58428;49.478;10.986;2023-06-14T01:11:07;97974.94;;;16.33;100.00
70815;BME280;58428;49.478;10.986;2023-06-14T01:13:42;97969.41;;;16.26;100.00
70815;BME280;58428;49.478;10.986;2023-06-14T01:16:09;97973.22;;;16.18;100.00
70815;BME280;58428;49.478;10.986;2023-06-14T01:18:35;97969.59;;;16.11;100.00
70815;BME280;58428;49.478;10.986;2023-06-14T01:21:01;97966.44;;;16.09;100.00
70815;BME280;58428;49.478;10.986;2023-06-14T01:23:31;97968.38;;;16.08;100.00
70815;BME280;58428;49.478;10.986;2023-06-14T01:26:01;97979.25;;;16.05;100.00
70815;BME280;58428;49.478;10.986;2023-06-14T01:28:28;97980.81;;;16.06;100.00
70815;BME280;58428;49.478;10.986;2023-06-14T01:30:59;97971.38;;;16.00;100.00
70815;BME280;58428;49.478;10.986;2023-06-14T01:33:27;97976.06;;;15.99;100.00
70815;BME280;58428;49.478;10.986;2023-06-14T01:35:54;97975.66;;;15.97;100.00
70815;BME280;58428;49.478;10.986;2023-06-14T01:38:23;97976.78;;;15.96;100.00
70815;BME280;58428;49.478;10.986;2023-06-14T01:40:50;97973.25;;;15.92;100.00
70815;BME280;58428;49.478;10.986;2023-06-14T01:43:20;97983.72;;;15.90;100.00
70815;BME280;58428;49.478;10.986;2023-06-14T01:45:48;97978.19;;;15.83;100.00
70815;BME280;58428;49.478;10.986;2023-06-14T01:48:16;97974.94;;;15.75;100.00
70815;BME280;58428;49.478;10.986;2023-06-14T01:50:49;97974.53;;;15.73;100.00
70815;BME280;58428;49.478;10.986;2023-06-14T01:53:15;97977.53;;;15.64;100.00
70815;BME280;58428;49.478;10.986;2023-06-14T01:55:42;97980.06;;;15.50;100.00
70815;BME280;58428;49.478;10.986;2023-06-14T01:58:09;97973.81;;;15.50;100.00
70815;BME280;58428;49.478;10.986;2023-06-14T02:00:35;97972.19;;;15.46;100.00
70815;BME280;58428;49.478;10.986;2023-06-14T02:03:00;97982.00;;;15.50;100.00
70815;BME280;58428;49.478;10.986;2023-06-14T02:05:27;97976.44;;;15.43;100.00
70815;BME280;58428;49.478;10.986;2023-06-14T02:07:53;97987.34;;;15.43;100.00
70815;BME280;58428;49.478;10.986;2023-06-14T02:10:18;97988.81;;;15.37;100.00
70815;BME280;58428;49.478;10.986;2023-06-14T02:12:44;97982.91;;;15.32;100.00
70815;BME280;58428;49.478;10.986;2023-06-14T02:15:10;97980.53;;;15.30;100.00
70815;BME280;58428;49.478;10.986;2023-06-14T02:17:42;97986.34;;;15.29;100.00
70815;BME280;58428;49.478;10.986;2023-06-14T02:20:09;97979.63;;;15.23;100.00
70815;BME280;58428;49.478;10.986;2023-06-14T02:22:34;97985.06;;;15.23;100.00
70815;BME280;58428;49.478;10.986;2023-06-14T02:25:00;97985.81;;;15.20;100.00
70815;BME280;58428;49.478;10.986;2023-06-14T02:27:28;97989.06;;;15.07;100.00
70815;BME280;58428;49.478;10.986;2023-06-14T02:29:54;97989.97;;;14.92;100.00
70815;BME280;58428;49.478;10.986;2023-06-14T02:32:19;97989.47;;;14.86;100.00
70815;BME280;58428;49.478;10.986;2023-06-14T02:34:54;97992.88;;;14.80;100.00
70815;BME280;58428;49.478;10.986;2023-06-14T02:37:22;97988.88;;;14.74;100.00
70815;BME280;58428;49.478;10.986;2023-06-14T02:39:52;97997.38;;;14.69;100.00
70815;BME280;58428;49.478;10.986;2023-06-14T02:42:17;97996.53;;;14.65;100.00
70815;BME280;58428;49.478;10.986;2023-06-14T02:44:42;98001.03;;;14.58;100.00
70815;BME280;58428;49.478;10.986;2023-06-14T02:47:08;98004.34;;;14.48;100.00
70815;BME280;58428;49.478;10.986;2023-06-14T02:49:34;98010.75;;;14.36;100.00
70815;BME280;58428;49.478;10.986;2023-06-14T02:51:59;98014.09;;;14.30;100.00
70815;BME280;58428;49.478;10.986;2023-06-14T02:54:25;98007.94;;;14.33;100.00
70815;BME280;58428;49.478;10.986;2023-06-14T02:56:50;98013.75;;;14.32;100.00
70815;BME280;58428;49.478;10.986;2023-06-14T02:59:16;98016.88;;;14.34;100.00
70815;BME280;58428;49.478;10.986;2023-06-14T03:01:42;98014.53;;;14.32;100.00
70815;BME280;58428;49.478;10.986;2023-06-14T03:04:08;98014.16;;;14.34;100.00
70815;BME280;58428;49.478;10.986;2023-06-14T03:06:37;98020.34;;;14.31;100.00
70815;BME280;58428;49.478;10.986;2023-06-14T03:09:03;98022.13;;;14.23;100.00
70815;BME280;58428;49.478;10.986;2023-06-14T03:11:32;98020.06;;;14.17;100.00
70815;BME280;58428;49.478;10.986;2023-06-14T03:13:57;98026.28;;;14.17;100.00
70815;BME280;58428;49.478;10.986;2023-06-14T03:16:23;98018.03;;;14.14;100.00
70815;BME280;58428;49.478;10.986;2023-06-14T03:18:52;98024.25;;;14.14;100.00
70815;BME280;58428;49.478;10.986;2023-06-14T03:21:19;98021.91;;;14.13;100.00
70815;BME280;58428;49.478;10.986;2023-06-14T03:23:46;98020.50;;;14.19;100.00
70815;BME280;58428;49.478;10.986;2023-06-14T03:26:11;98028.56;;;14.15;100.00
70815;BME280;58428;49.478;10.986;2023-06-14T03:28:40;98022.69;;;14.13;100.00
70815;BME280;58428;49.478;10.986;2023-06-14T03:31:06;98036.22;;;14.10;100.00
70815;BME280;58428;49.478;10.986;2023-06-14T03:33:32;98038.53;;;14.08;100.00
70815;BME280;58428;49.478;10.986;2023-06-14T03:35:57;98039.66;;;14.07;100.00
70815;BME280;58428;49.478;10.986;2023-06-14T03:38:24;98038.53;;;14.08;100.00
70815;BME280;58428;49.478;10.986;2023-06-14T03:40:50;98038.88;;;14.06;100.00
70815;BME280;58428;49.478;10.986;2023-06-14T03:43:15;98039.59;;;14.03;100.00
70815;BME280;58428;49.478;10.986;2023-06-14T03:45:40;98045.38;;;14.02;100.00
70815;BME280;58428;49.478;10.986;2023-06-14T03:48:06;98050.81;;;14.02;100.00
70815;BME280;58428;49.478;10.986;2023-06-14T03:50:34;98052.66;;;13.98;100.00
70815;BME280;58428;49.478;10.986;2023-06-14T03:53:03;98057.66;;;13.96;100.00
70815;BME280;58428;49.478;10.986;2023-06-14T03:55:28;98064.22;;;13.95;100.00
70815;BME280;58428;49.478;10.986;2023-06-14T03:57:56;98065.31;;;13.91;100.00
70815;BME280;58428;49.478;10.986;2023-06-14T04:00:21;98065.75;;;13.93;100.00
70815;BME280;58428;49.478;10.986;2023-06-14T04:02:49;98077.47;;;13.97;100.00
70815;BME280;58428;49.478;10.986;2023-06-14T04:05:15;98066.16;;;13.95;100.00
70815;BME280;58428;49.478;10.986;2023-06-14T04:07:45;98076.63;;;13.93;100.00
70815;BME280;58428;49.478;10.986;2023-06-14T04:10:12;98070.09;;;13.97;100.00
70815;BME280;58428;49.478;10.986;2023-06-14T04:12:38;98070.81;;;13.94;100.00
70815;BME280;58428;49.478;10.986;2023-06-14T04:15:04;98081.41;;;13.99;100.00
70815;BME280;58428;49.478;10.986;2023-06-14T04:17:31;98077.72;;;14.07;100.00
70815;BME280;58428;49.478;10.986;2023-06-14T04:19:58;98080.97;;;14.12;100.00
70815;BME280;58428;49.478;10.986;2023-06-14T04:22:25;98082.66;;;14.17;100.00
70815;BME280;58428;49.478;10.986;2023-06-14T04:24:54;98075.78;;;14.23;100.00
70815;BME280;58428;49.478;10.986;2023-06-14T04:27:23;98081.78;;;14.32;100.00
70815;BME280;58428;49.478;10.986;2023-06-14T04:29:55;98084.56;;;14.35;100.00
70815;BME280;58428;49.478;10.986;2023-06-14T04:32:28;98080.06;;;14.42;100.00
70815;BME280;58428;49.478;10.986;2023-06-14T04:34:57;98077.56;;;14.53;100.00
70815;BME280;58428;49.478;10.986;2023-06-14T04:37:25;98088.72;;;14.67;100.00
70815;BME280;58428;49.478;10.986;2023-06-14T04:39:54;98088.84;;;14.92;100.00
70815;BME280;58428;49.478;10.986;2023-06-14T04:42:21;98090.94;;;15.21;100.00
70815;BME280;58428;49.478;10.986;2023-06-14T04:44:51;98086.69;;;15.46;100.00
70815;BME280;58428;49.478;10.986;2023-06-14T04:47:18;98088.72;;;15.48;100.00
70815;BME280;58428;49.478;10.986;2023-06-14T04:49:43;98082.84;;;15.47;100.00
70815;BME280;58428;49.478;10.986;2023-06-14T04:52:11;98086.16;;;15.37;100.00
70815;BME280;58428;49.478;10.986;2023-06-14T04:54:38;98091.91;;;15.32;100.00
70815;BME280;58428;49.478;10.986;2023-06-14T04:57:04;98088.16;;;15.40;100.00
70815;BME280;58428;49.478;10.986;2023-06-14T04:59:30;98087.47;;;15.46;100.00
70815;BME280;58428;49.478;10.986;2023-06-14T05:01:58;98094.09;;;15.45;100.00
70815;BME280;58428;49.478;10.986;2023-06-14T05:04:25;98091.31;;;15.42;100.00
70815;BME280;58428;49.478;10.986;2023-06-14T05:06:52;98095.66;;;15.46;100.00
70815;BME280;58428;49.478;10.986;2023-06-14T05:09:20;98098.53;;;15.53;100.00
70815;BME280;58428;49.478;10.986;2023-06-14T05:11:46;98091.25;;;15.60;100.00
70815;BME280;58428;49.478;10.986;2023-06-14T05:14:15;98090.25;;;15.72;100.00
70815;BME280;58428;49.478;10.986;2023-06-14T05:16:41;98088.81;;;15.81;100.00
70815;BME280;58428;49.478;10.986;2023-06-14T05:19:11;98097.13;;;15.88;100.00
70815;BME280;58428;49.478;10.986;2023-06-14T05:21:36;98094.53;;;15.95;100.00
70815;BME280;58428;49.478;10.986;2023-06-14T05:24:02;98097.38;;;16.05;100.00
70815;BME280;58428;49.478;10.986;2023-06-14T05:26:29;98097.06;;;16.10;100.00
70815;BME280;58428;49.478;10.986;2023-06-14T05:28:56;98100.34;;;16.19;100.00
70815;BME280;58428;49.478;10.986;2023-06-14T05:31:26;98103.59;;;16.28;100.00
70815;BME280;58428;49.478;10.986;2023-06-14T05:33:55;98094.41;;;16.43;100.00
70815;BME280;58428;49.478;10.986;2023-06-14T05:36:20;98100.88;;;16.60;100.00
70815;BME280;58428;49.478;10.986;2023-06-14T05:38:53;98104.63;;;16.78;100.00
70815;BME280;58428;49.478;10.986;2023-06-14T05:41:24;98102.75;;;16.86;100.00
70815;BME280;58428;49.478;10.986;2023-06-14T05:43:50;98106.44;;;17.00;100.00
70815;BME280;58428;49.478;10.986;2023-06-14T05:46:16;98110.88;;;17.11;100.00
70815;BME280;58428;49.478;10.986;2023-06-14T05:48:47;98113.88;;;17.35;100.00
70815;BME280;58428;49.478;10.986;2023-06-14T05:51:12;98106.19;;;17.48;100.00
70815;BME280;58428;49.478;10.986;2023-06-14T05:53:39;98110.97;;;17.58;100.00
70815;BME280;58428;49.478;10.986;2023-06-14T05:56:04;98108.78;;;17.77;100.00
70815;BME280;58428;49.478;10.986;2023-06-14T05:58:30;98108.94;;;18.01;100.00
70815;BME280;58428;49.478;10.986;2023-06-14T06:00:55;98114.22;;;18.23;100.00
70815;BME280;58428;49.478;10.986;2023-06-14T06:03:22;98110.81;;;18.43;100.00
70815;BME280;58428;49.478;10.986;2023-06-14T06:05:48;98112.84;;;18.57;100.00
70815;BME280;58428;49.478;10.986;2023-06-14T06:08:13;98117.97;;;18.69;100.00
70815;BME280;58428;49.478;10.986;2023-06-14T06:10:39;98116.81;;;18.73;100.00
70815;BME280;58428;49.478;10.986;2023-06-14T06:13:04;98115.19;;;18.62;100.00
70815;BME280;58428;49.478;10.986;2023-06-14T06:15:30;98116.00;;;18.62;100.00
70815;BME280;58428;49.478;10.986;2023-06-14T06:20:23;98107.88;;;18.90;100.00
70815;BME280;58428;49.478;10.986;2023-06-14T06:22:55;98114.63;;;19.03;100.00
70815;BME280;58428;49.478;10.986;2023-06-14T06:25:21;98114.66;;;19.17;100.00
70815;BME280;58428;49.478;10.986;2023-06-14T06:27:47;98113.84;;;19.16;100.00
70815;BME280;58428;49.478;10.986;2023-06-14T06:30:13;98113.84;;;19.16;100.00
70815;BME280;58428;49.478;10.986;2023-06-14T06:32:39;98118.97;;;19.24;100.00
70815;BME280;58428;49.478;10.986;2023-06-14T06:35:05;98124.88;;;19.33;100.00
70815;BME280;58428;49.478;10.986;2023-06-14T06:37:32;98122.94;;;19.58;100.00
70815;BME280;58428;49.478;10.986;2023-06-14T06:39:58;98128.09;;;19.84;100.00
70815;BME280;58428;49.478;10.986;2023-06-14T06:42:24;98130.84;;;19.87;100.00
70815;BME280;58428;49.478;10.986;2023-06-14T06:44:53;98127.69;;;19.75;100.00
70815;BME280;58428;49.478;10.986;2023-06-14T06:47:20;98123.75;;;19.62;100.00
70815;BME280;58428;49.478;10.986;2023-06-14T06:49:45;98120.66;;;19.81;100.00
70815;BME280;58428;49.478;10.986;2023-06-14T06:52:12;98124.19;;;19.85;100.00
70815;BME280;58428;49.478;10.986;2023-06-14T06:54:37;98126.53;;;19.86;100.00
70815;BME280;58428;49.478;10.986;2023-06-14T06:57:03;98137.50;;;19.90;100.00
70815;BME280;58428;49.478;10.986;2023-06-14T06:59:28;98133.19;;;19.92;100.00
70815;BME280;58428;49.478;10.986;2023-06-14T07:01:54;98133.59;;;19.94;100.00
70815;BME280;58428;49.478;10.986;2023-06-14T07:04:19;98128.09;;;20.11;100.00
70815;BME280;58428;49.478;10.986;2023-06-14T07:06:45;98129.66;;;20.23;100.00
70815;BME280;58428;49.478;10.986;2023-06-14T07:09:12;98134.72;;;20.28;100.00
70815;BME280;58428;49.478;10.986;2023-06-14T07:11:39;98138.69;;;20.27;100.00
70815;BME280;58428;49.478;10.986;2023-06-14T07:14:06;98127.66;;;20.30;100.00
70815;BME280;58428;49.478;10.986;2023-06-14T07:16:32;98132.75;;;20.35;100.00
70815;BME280;58428;49.478;10.986;2023-06-14T07:18:59;98131.19;;;20.41;100.00
70815;BME280;58428;49.478;10.986;2023-06-14T07:21:27;98131.53;;;20.53;100.00
70815;BME280;58428;49.478;10.986;2023-06-14T07:23:53;98129.63;;;20.36;100.00
70815;BME280;58428;49.478;10.986;2023-06-14T07:26:21;98139.03;;;20.32;100.00
70815;BME280;58428;49.478;10.986;2023-06-14T07:28:47;98131.94;;;20.38;100.00
70815;BME280;58428;49.478;10.986;2023-06-14T07:31:14;98142.16;;;20.48;100.00
70815;BME280;58428;49.478;10.986;2023-06-14T07:33:41;98141.34;;;20.65;100.00
70815;BME280;58428;49.478;10.986;2023-06-14T07:36:06;98144.88;;;20.72;100.00
70815;BME280;58428;49.478;10.986;2023-06-14T07:38:33;98139.34;;;20.79;100.00
70815;BME280;58428;49.478;10.986;2023-06-14T07:41:00;98139.75;;;20.81;98.15
70815;BME280;58428;49.478;10.986;2023-06-14T07:43:26;98139.34;;;20.75;97.35
70815;BME280;58428;49.478;10.986;2023-06-14T07:45:52;98140.53;;;20.74;97.30
70815;BME280;58428;49.478;10.986;2023-06-14T07:48:17;98147.94;;;20.91;97.58
70815;BME280;58428;49.478;10.986;2023-06-14T07:50:43;98136.94;;;20.95;94.82
70815;BME280;58428;49.478;10.986;2023-06-14T07:53:09;98138.88;;;20.98;94.93
70815;BME280;58428;49.478;10.986;2023-06-14T07:55:34;98141.22;;;21.06;93.81
70815;BME280;58428;49.478;10.986;2023-06-14T07:58:11;98144.72;;;21.10;91.70
70815;BME280;58428;49.478;10.986;2023-06-14T08:00:37;98147.03;;;21.15;88.45
70815;BME280;58428;49.478;10.986;2023-06-14T08:03:03;98147.78;;;21.22;88.91
70815;BME280;58428;49.478;10.986;2023-06-14T08:05:29;98153.66;;;21.31;88.02
70815;BME280;58428;49.478;10.986;2023-06-14T08:07:55;98146.56;;;21.34;87.18
70815;BME280;58428;49.478;10.986;2023-06-14T08:10:22;98150.09;;;21.41;86.91
70815;BME280;58428;49.478;10.986;2023-06-14T08:12:48;98158.28;;;21.48;85.41
70815;BME280;58428;49.478;10.986;2023-06-14T08:15:19;98154.38;;;21.45;84.80
70815;BME280;58428;49.478;10.986;2023-06-14T08:17:45;98153.59;;;21.45;84.88
70815;BME280;58428;49.478;10.986;2023-06-14T08:20:12;98155.88;;;21.60;85.87
70815;BME280;58428;49.478;10.986;2023-06-14T08:22:38;98156.19;;;21.66;84.33
70815;BME280;58428;49.478;10.986;2023-06-14T08:25:07;98151.53;;;21.63;83.88
70815;BME280;58428;49.478;10.986;2023-06-14T08:27:34;98155.41;;;21.69;84.74
70815;BME280;58428;49.478;10.986;2023-06-14T08:30:01;98157.59;;;21.91;84.97
70815;BME280;58428;49.478;10.986;2023-06-14T08:32:28;98161.91;;;21.95;81.61
70815;BME280;58428;49.478;10.986;2023-06-14T08:34:55;98164.31;;;21.90;80.44
70815;BME280;58428;49.478;10.986;2023-06-14T08:37:20;98163.47;;;21.93;80.53
70815;BME280;58428;49.478;10.986;2023-06-14T08:39:46;98161.84;;;22.02;80.42
70815;BME280;58428;49.478;10.986;2023-06-14T08:42:12;98159.03;;;22.09;80.27
70815;BME280;58428;49.478;10.986;2023-06-14T08:44:39;98158.34;;;21.95;78.35
70815;BME280;58428;49.478;10.986;2023-06-14T08:47:06;98166.66;;;21.91;80.83
70815;BME280;58428;49.478;10.986;2023-06-14T08:49:36;98164.97;;;22.04;81.39
70815;BME280;58428;49.478;10.986;2023-06-14T08:52:03;98169.22;;;22.19;78.78
70815;BME280;58428;49.478;10.986;2023-06-14T08:54:31;98163.94;;;22.35;78.99
70815;BME280;58428;49.478;10.986;2023-06-14T08:56:57;98170.66;;;22.34;77.10
70815;BME280;58428;49.478;10.986;2023-06-14T08:59:25;98161.28;;;22.28;76.03
70815;BME280;58428;49.478;10.986;2023-06-14T09:01:51;98159.25;;;22.32;76.24
70815;BME280;58428;49.478;10.986;2023-06-14T09:04:21;98156.78;;;22.44;76.53
70815;BME280;58428;49.478;10.986;2023-06-14T09:06:55;98148.34;;;22.58;77.51
70815;BME280;58428;49.478;10.986;2023-06-14T09:09:22;98161.00;;;22.55;75.74
70815;BME280;58428;49.478;10.986;2023-06-14T09:11:53;98154.19;;;22.67;76.82
70815;BME280;58428;49.478;10.986;2023-06-14T09:14:19;98158.38;;;22.78;76.82
70815;BME280;58428;49.478;10.986;2023-06-14T09:16:45;98175.31;;;22.80;74.60
70815;BME280;58428;49.478;10.986;2023-06-14T09:19:30;98165.13;;;22.74;73.60
70815;BME280;58428;49.478;10.986;2023-06-14T09:21:57;98165.06;;;22.81;72.66
70815;BME280;58428;49.478;10.986;2023-06-14T09:24:30;98168.09;;;22.93;73.45
70815;BME280;58428;49.478;10.986;2023-06-14T09:26:56;98166.09;;;22.93;72.98
70815;BME280;58428;49.478;10.986;2023-06-14T09:29:22;98171.78;;;23.13;73.23
70815;BME280;58428;49.478;10.986;2023-06-14T09:31:48;98163.72;;;23.28;72.41
70815;BME280;58428;49.478;10.986;2023-06-14T09:34:13;98166.97;;;23.50;72.81
70815;BME280;58428;49.478;10.986;2023-06-14T09:36:41;98171.38;;;23.44;71.13
70815;BME280;58428;49.478;10.986;2023-06-14T09:39:08;98174.47;;;23.20;70.75
70815;BME280;58428;49.478;10.986;2023-06-14T09:41:35;98172.81;;;22.92;68.25
70815;BME280;58428;49.478;10.986;2023-06-14T09:44:02;98178.53;;;22.72;68.03
70815;BME280;58428;49.478;10.986;2023-06-14T09:46:29;98177.94;;;22.54;70.52
70815;BME280;58428;49.478;10.986;2023-06-14T09:48:58;98170.75;;;22.63;71.71
70815;BME280;58428;49.478;10.986;2023-06-14T09:51:24;98171.38;;;22.78;70.57
70815;BME280;58428;49.478;10.986;2023-06-14T09:53:50;98170.31;;;23.05;70.12
70815;BME280;58428;49.478;10.986;2023-06-14T09:56:40;98171.88;;;23.35;65.94
70815;BME280;58428;49.478;10.986;2023-06-14T09:59:06;98171.97;;;23.62;65.84
70815;BME280;58428;49.478;10.986;2023-06-14T10:01:36;98167.38;;;23.78;64.75
70815;BME280;58428;49.478;10.986;2023-06-14T10:04:05;98159.53;;;23.99;64.25
70815;BME280;58428;49.478;10.986;2023-06-14T10:06:36;98158.56;;;24.35;60.07
70815;BME280;58428;49.478;10.986;2023-06-14T10:09:04;98165.69;;;24.55;58.07
70815;BME280;58428;49.478;10.986;2023-06-14T10:11:31;98158.28;;;24.91;59.70
70815;BME280;58428;49.478;10.986;2023-06-14T10:13:57;98167.03;;;24.89;59.17
70815;BME280;58428;49.478;10.986;2023-06-14T10:16:28;98169.84;;;25.09;54.84
70815;BME280;58428;49.478;10.986;2023-06-14T10:21:55;98162.44;;;25.02;53.42
70815;BME280;58428;49.478;10.986;2023-06-14T10:24:29;98157.59;;;25.06;54.76
70815;BME280;58428;49.478;10.986;2023-06-14T10:26:57;98164.06;;;25.00;51.96
70815;BME280;58428;49.478;10.986;2023-06-14T10:29:23;98162.84;;;24.81;52.59
70815;BME280;58428;49.478;10.986;2023-06-14T10:31:49;98169.59;;;24.58;53.14
70815;BME280;58428;49.478;10.986;2023-06-14T10:37:00;98171.75;;;24.70;53.78
70815;BME280;58428;49.478;10.986;2023-06-14T10:39:27;98169.84;;;24.67;52.96
70815;BME280;58428;49.478;10.986;2023-06-14T10:41:53;98167.78;;;24.71;53.08
70815;BME280;58428;49.478;10.986;2023-06-14T10:46:55;98166.53;;;25.33;51.50
70815;BME280;58428;49.478;10.986;2023-06-14T10:49:45;98164.72;;;25.26;48.16
70815;BME280;58428;49.478;10.986;2023-06-14T10:52:15;98159.66;;;25.21;50.56
70815;BME280;58428;49.478;10.986;2023-06-14T10:55:00;98161.75;;;25.52;48.90
70815;BME280;58428;49.478;10.986;2023-06-14T10:57:38;98158.41;;;25.80;48.31
70815;BME280;58428;49.478;10.986;2023-06-14T11:00:06;98153.97;;;25.98;47.96
70815;BME280;58428;49.478;10.986;2023-06-14T11:05:27;98152.25;;;26.04;42.79
70815;BME280;58428;49.478;10.986;2023-06-14T11:10:47;98162.81;;;26.57;41.80
70815;BME280;58428;49.478;10.986;2023-06-14T11:13:12;98157.50;;;26.78;41.92
70815;BME280;58428;49.478;10.986;2023-06-14T11:15:44;98162.00;;;27.16;41.24
70815;BME280;58428;49.478;10.986;2023-06-14T11:18:11;98146.78;;;27.08;38.56
70815;BME280;58428;49.478;10.986;2023-06-14T11:20:39;98150.44;;;26.45;39.11
70815;BME280;58428;49.478;10.986;2023-06-14T11:23:05;98153.94;;;26.77;41.05
70815;BME280;58428;49.478;10.986;2023-06-14T11:25:31;98150.81;;;26.91;39.92
70815;BME280;58428;49.478;10.986;2023-06-14T11:27:59;98148.16;;;27.00;39.69
70815;BME280;58428;49.478;10.986;2023-06-14T11:30:25;98147.78;;;27.14;40.27
70815;BME280;58428;49.478;10.986;2023-06-14T11:32:52;98143.13;;;26.83;40.77
70815;BME280;58428;49.478;10.986;2023-06-14T11:35:19;98144.09;;;26.61;41.73
70815;BME280;58428;49.478;10.986;2023-06-14T11:37:45;98147.88;;;26.66;40.65
70815;BME280;58428;49.478;10.986;2023-06-14T11:40:11;98146.00;;;26.48;40.20
70815;BME280;58428;49.478;10.986;2023-06-14T11:42:39;98153.06;;;26.36;42.28
70815;BME280;58428;49.478;10.986;2023-06-14T11:45:11;98150.94;;;26.09;42.00
70815;BME280;58428;49.478;10.986;2023-06-14T11:47:38;98148.53;;;26.11;41.87
70815;BME280;58428;49.478;10.986;2023-06-14T11:50:06;98148.44;;;26.14;42.30
70815;BME280;58428;49.478;10.986;2023-06-14T11:52:33;98150.53;;;26.26;42.16
70815;BME280;58428;49.478;10.986;2023-06-14T11:54:59;98145.44;;;26.40;42.58
70815;BME280;58428;49.478;10.986;2023-06-14T11:57:26;98148.97;;;26.41;40.68
70815;BME280;58428;49.478;10.986;2023-06-14T11:59:51;98150.28;;;26.36;41.66
70815;BME280;58428;49.478;10.986;2023-06-14T12:02:18;98139.69;;;26.16;41.37
70815;BME280;58428;49.478;10.986;2023-06-14T12:04:46;98144.34;;;25.71;40.32
70815;BME280;58428;49.478;10.986;2023-06-14T12:07:14;98150.69;;;25.33;41.27
70815;BME280;58428;49.478;10.986;2023-06-14T12:12:26;98144.94;;;25.44;41.94
70815;BME280;58428;49.478;10.986;2023-06-14T12:14:52;98141.38;;;25.62;42.97
70815;BME280;58428;49.478;10.986;2023-06-14T12:17:19;98136.53;;;25.66;42.37
70815;BME280;58428;49.478;10.986;2023-06-14T12:19:46;98130.56;;;25.49;41.89
70815;BME280;58428;49.478;10.986;2023-06-14T12:22:13;98133.97;;;25.21;40.76
70815;BME280;58428;49.478;10.986;2023-06-14T12:24:39;98133.91;;;25.05;41.59
70815;BME280;58428;49.478;10.986;2023-06-14T12:27:07;98143.56;;;24.97;41.05
70815;BME280;58428;49.478;10.986;2023-06-14T12:29:34;98139.22;;;24.96;41.80
70815;BME280;58428;49.478;10.986;2023-06-14T12:32:01;98133.47;;;25.26;42.09
70815;BME280;58428;49.478;10.986;2023-06-14T12:34:27;98132.72;;;25.60;42.46
70815;BME280;58428;49.478;10.986;2023-06-14T12:36:54;98131.09;;;25.94;42.10
70815;BME280;58428;49.478;10.986;2023-06-14T12:39:20;98128.59;;;26.31;41.01
70815;BME280;58428;49.478;10.986;2023-06-14T12:41:46;98128.88;;;26.37;39.21
70815;BME280;58428;49.478;10.986;2023-06-14T12:44:14;98137.09;;;26.09;37.39
70815;BME280;58428;49.478;10.986;2023-06-14T12:46:41;98139.75;;;25.65;37.81
70815;BME280;58428;49.478;10.986;2023-06-14T12:49:11;98139.06;;;25.61;39.51
70815;BME280;58428;49.478;10.986;2023-06-14T12:51:38;98137.00;;;25.81;38.75
70815;BME280;58428;49.478;10.986;2023-06-14T12:54:04;98133.88;;;25.79;38.44
70815;BME280;58428;49.478;10.986;2023-06-14T12:56:29;98137.75;;;25.81;39.02
70815;BME280;58428;49.478;10.986;2023-06-14T12:58:55;98141.16;;;26.04;39.57
70815;BME280;58428;49.478;10.986;2023-06-14T13:01:20;98147.50;;;26.21;38.86
70815;BME280;58428;49.478;10.986;2023-06-14T13:03:47;98148.78;;;26.16;38.76
70815;BME280;58428;49.478;10.986;2023-06-14T13:06:12;98150.78;;;26.00;38.18